createdAt,value
2022-11-01T00:00:55.197Z,38.17
2022-11-01T00:03:23.435Z,34.70
2022-11-01T00:05:49.851Z,44.53
2022-11-01T00:08:16.258Z,31.90
2022-11-01T00:10:42.672Z,37.67
2022-11-01T00:13:09.052Z,34.90
2022-11-01T00:15:35.643Z,40.50
2022-11-01T00:18:02.054Z,34.80
2022-11-01T00:20:28.533Z,42.45
2022-11-01T00:22:54.929Z,45.00
2022-11-01T00:25:21.339Z,52.83
2022-11-01T00:27:47.767Z,46.83
2022-11-01T00:30:14.195Z,43.07
2022-11-01T00:32:41.349Z,48.65
2022-11-01T00:35:07.918Z,46.63
2022-11-01T00:37:34.382Z,40.42
2022-11-01T00:40:00.785Z,47.93
2022-11-01T00:42:27.203Z,47.45
2022-11-01T00:44:54.103Z,45.33
2022-11-01T00:47:20.519Z,46.33
2022-11-01T00:49:46.933Z,44.30
2022-11-01T00:52:13.434Z,41.17
2022-11-01T00:54:40.058Z,48.07
2022-11-01T00:57:06.613Z,42.03
2022-11-01T00:59:33.018Z,44.77
2022-11-01T01:01:59.575Z,61.57
2022-11-01T01:04:26.035Z,61.77
2022-11-01T01:06:52.486Z,67.50
2022-11-01T01:09:18.866Z,58.70
2022-11-01T01:11:45.277Z,60.13
2022-11-01T01:14:11.825Z,72.15
2022-11-01T01:16:38.323Z,54.37
2022-11-01T01:19:04.756Z,59.67
2022-11-01T01:21:31.197Z,70.73
2022-11-01T01:23:57.676Z,70.67
2022-11-01T01:26:24.155Z,68.20
2022-11-01T01:28:52.784Z,71.70
2022-11-01T01:31:19.201Z,71.80
2022-11-01T01:33:45.608Z,69.07
2022-11-01T01:36:12.040Z,65.70
2022-11-01T01:38:38.536Z,70.60
2022-11-01T01:41:23.759Z,68.43
2022-11-01T01:43:50.177Z,70.47
2022-11-01T01:46:16.576Z,68.37
2022-11-01T01:48:43.562Z,63.77
2022-11-01T01:51:11.354Z,69.87
2022-11-01T01:53:42.139Z,62.33
2022-11-01T01:56:08.511Z,62.50
2022-11-01T01:58:43.341Z,59.43
2022-11-01T02:01:09.843Z,60.93
2022-11-01T02:03:36.388Z,64.77
2022-11-01T02:06:02.820Z,59.43
2022-11-01T02:08:29.296Z,57.43
2022-11-01T02:10:56.593Z,59.93
2022-11-01T02:13:23.067Z,64.10
2022-11-01T02:16:09.703Z,59.87
2022-11-01T02:18:36.165Z,60.07
2022-11-01T02:21:11.711Z,66.87
2022-11-01T02:23:56.814Z,55.00
2022-11-01T02:26:26.287Z,55.17
2022-11-01T02:29:10.119Z,55.63
2022-11-01T02:31:55.263Z,58.00
2022-11-01T02:34:32.604Z,50.90
2022-11-01T02:37:02.775Z,58.30
2022-11-01T02:39:33.143Z,61.00
2022-11-01T02:42:10.223Z,63.10
2022-11-01T02:44:37.710Z,59.00
2022-11-01T02:47:04.106Z,57.57
2022-11-01T02:49:30.495Z,59.97
2022-11-01T02:51:56.929Z,59.67
2022-11-01T02:54:27.155Z,54.43
2022-11-01T02:56:53.590Z,51.53
2022-11-01T02:59:23.173Z,51.38
2022-11-01T03:02:05.776Z,47.10
2022-11-01T03:04:32.295Z,48.22
2022-11-01T03:06:59.268Z,48.10
2022-11-01T03:09:25.713Z,42.20
2022-11-01T03:11:52.093Z,42.55
2022-11-01T03:14:18.516Z,41.90
2022-11-01T03:16:55.113Z,47.73
2022-11-01T03:19:37.043Z,39.47
2022-11-01T03:22:06.471Z,42.50
2022-11-01T03:24:37.366Z,41.67
2022-11-01T03:27:11.658Z,40.53
2022-11-01T03:29:38.266Z,36.70
2022-11-01T03:32:04.878Z,37.80
2022-11-01T03:34:32.030Z,35.93
2022-11-01T03:37:00.003Z,38.08
2022-11-01T03:39:28.247Z,40.47
2022-11-01T03:41:56.898Z,42.63
2022-11-01T03:44:23.295Z,42.17
2022-11-01T03:46:49.732Z,45.70
2022-11-01T03:49:16.781Z,35.83
2022-11-01T03:51:43.209Z,35.93
2022-11-01T03:54:11.160Z,40.75
2022-11-01T03:56:40.637Z,28.33
2022-11-01T03:59:08.171Z,32.60
2022-11-01T04:01:34.732Z,29.92
2022-11-01T04:04:01.285Z,31.80
2022-11-01T04:06:27.716Z,33.92
2022-11-01T04:08:54.156Z,29.63
2022-11-01T04:11:20.594Z,32.90
2022-11-01T04:13:47.256Z,26.93
2022-11-01T04:16:32.389Z,30.83
2022-11-01T04:19:17.512Z,25.53
2022-11-01T04:21:43.958Z,27.03
2022-11-01T04:24:10.395Z,24.90
2022-11-01T04:26:37.018Z,30.37
2022-11-01T04:29:03.520Z,31.93
2022-11-01T04:31:33.721Z,28.67
2022-11-01T04:34:00.586Z,27.03
2022-11-01T04:36:27.061Z,28.88
2022-11-01T04:38:55.867Z,27.67
2022-11-01T04:41:22.999Z,29.60
2022-11-01T04:43:49.552Z,27.97
2022-11-01T04:46:16.110Z,27.30
2022-11-01T04:48:42.540Z,33.67
2022-11-01T04:51:08.982Z,31.13
2022-11-01T04:53:35.541Z,32.53
2022-11-01T04:56:05.453Z,28.95
2022-11-01T04:58:31.884Z,31.87
2022-11-01T05:00:58.375Z,27.80
2022-11-01T05:03:24.809Z,28.83
2022-11-01T05:05:51.223Z,28.53
2022-11-01T05:08:17.620Z,25.38
2022-11-01T05:10:44.247Z,24.35
2022-11-01T05:13:11.187Z,27.27
2022-11-01T05:15:40.227Z,24.40
2022-11-01T05:18:14.447Z,19.40
2022-11-01T05:20:40.827Z,20.45
2022-11-01T05:23:07.425Z,22.67
2022-11-01T05:25:37.056Z,19.63
2022-11-01T05:28:08.595Z,16.20
2022-11-01T05:30:35.168Z,18.48
2022-11-01T05:33:01.750Z,16.53
2022-11-01T05:35:28.544Z,18.13
2022-11-01T05:37:55.168Z,18.42
2022-11-01T05:40:21.584Z,22.48
2022-11-01T05:42:48.075Z,15.57
2022-11-01T05:45:14.497Z,18.35
2022-11-01T05:47:41.491Z,17.63
2022-11-01T05:50:08.742Z,17.73
2022-11-01T05:52:35.212Z,19.35
2022-11-01T05:55:01.646Z,17.33
2022-11-01T05:57:32.429Z,18.75
2022-11-01T05:59:59.964Z,23.83
2022-11-01T06:02:26.401Z,20.50
2022-11-01T06:04:52.866Z,22.17
2022-11-01T06:07:19.294Z,18.30
2022-11-01T06:09:46.092Z,20.37
2022-11-01T06:12:12.482Z,18.07
2022-11-01T06:14:38.929Z,15.38
2022-11-01T06:17:05.560Z,15.30
2022-11-01T06:19:31.974Z,14.23
2022-11-01T06:21:58.360Z,17.43
2022-11-01T06:24:24.771Z,11.52
2022-11-01T06:26:51.175Z,13.85
2022-11-01T06:29:18.135Z,16.25
2022-11-01T06:31:44.521Z,14.93
2022-11-01T06:34:10.939Z,19.50
2022-11-01T06:36:37.959Z,13.57
2022-11-01T06:39:04.423Z,14.15
2022-11-01T06:41:30.909Z,12.75
2022-11-01T06:43:57.539Z,14.10
2022-11-01T06:46:25.134Z,11.83
2022-11-01T06:48:51.534Z,14.87
2022-11-01T06:51:18.081Z,13.13
2022-11-01T06:53:44.717Z,11.70
2022-11-01T06:56:11.143Z,16.37
2022-11-01T06:58:37.573Z,12.53
2022-11-01T07:01:04.212Z,11.50
2022-11-01T07:03:30.729Z,12.35
2022-11-01T07:05:59.300Z,14.15
2022-11-01T07:08:25.725Z,13.38
2022-11-01T07:10:52.200Z,14.10
2022-11-01T07:13:18.634Z,12.33
2022-11-01T07:15:45.063Z,13.10
2022-11-01T07:18:11.480Z,14.63
2022-11-01T07:20:44.130Z,10.93
2022-11-01T07:23:14.438Z,13.10
2022-11-01T07:25:40.953Z,10.43
2022-11-01T07:28:07.509Z,14.48
2022-11-01T07:30:33.981Z,13.85
2022-11-01T07:33:01.611Z,11.30
2022-11-01T07:35:28.339Z,10.57
2022-11-01T07:37:58.822Z,9.83
2022-11-01T07:40:27.938Z,10.55
2022-11-01T07:42:58.438Z,8.77
2022-11-01T07:45:25.161Z,9.10
2022-11-01T07:47:51.643Z,9.85
2022-11-01T07:50:18.177Z,10.88
2022-11-01T07:52:45.039Z,9.88
2022-11-01T07:55:11.481Z,9.13
2022-11-01T07:57:41.214Z,9.52
2022-11-01T08:00:09.575Z,10.10
2022-11-01T08:02:36.055Z,8.82
2022-11-01T08:05:02.467Z,9.75
2022-11-01T08:07:28.851Z,8.40
2022-11-01T08:09:55.264Z,6.40
2022-11-01T08:12:21.688Z,9.45
2022-11-01T08:14:48.164Z,7.00
2022-11-01T08:17:14.557Z,9.23
2022-11-01T08:19:40.995Z,9.40
2022-11-01T08:22:07.509Z,8.60
2022-11-01T08:24:33.895Z,8.10
2022-11-01T08:27:01.004Z,8.02
2022-11-01T08:29:27.513Z,9.43
2022-11-01T08:31:53.969Z,8.77
2022-11-01T08:34:20.400Z,8.48
2022-11-01T08:36:47.006Z,8.20
2022-11-01T08:39:13.451Z,4.72
2022-11-01T08:41:39.949Z,10.00
2022-11-01T08:44:06.404Z,7.82
2022-11-01T08:46:32.850Z,8.73
2022-11-01T08:49:00.690Z,11.55
2022-11-01T08:51:27.480Z,7.25
2022-11-01T08:53:57.031Z,7.93
2022-11-01T08:56:24.795Z,8.05
2022-11-01T08:58:51.579Z,8.20
2022-11-01T09:01:18.296Z,9.00
2022-11-01T09:03:44.997Z,7.45
2022-11-01T09:06:11.559Z,6.95
2022-11-01T09:08:38.022Z,6.22
2022-11-01T09:11:06.435Z,7.28
2022-11-01T09:13:33.565Z,9.85
2022-11-01T09:16:02.336Z,8.43
2022-11-01T09:18:29.197Z,5.43
2022-11-01T09:20:55.964Z,7.72
2022-11-01T09:23:22.404Z,6.45
2022-11-01T09:25:48.859Z,6.57
2022-11-01T09:28:15.252Z,7.70
2022-11-01T09:30:49.814Z,8.07
2022-11-01T09:33:23.682Z,6.50
2022-11-01T09:35:53.085Z,7.43
2022-11-01T09:38:23.250Z,6.00
2022-11-01T09:40:50.611Z,5.78
2022-11-01T09:43:18.997Z,10.43
2022-11-01T09:45:45.453Z,6.60
2022-11-01T09:48:13.028Z,9.18
2022-11-01T09:50:39.556Z,7.57
2022-11-01T09:53:09.506Z,8.25
2022-11-01T09:55:41.367Z,10.35
2022-11-01T09:58:26.835Z,9.88
2022-11-01T10:00:55.847Z,10.98
2022-11-01T10:03:33.625Z,9.15
2022-11-01T10:06:00.271Z,8.57
2022-11-01T10:08:27.385Z,8.23
2022-11-01T10:11:05.821Z,9.65
2022-11-01T10:13:35.401Z,7.32
2022-11-01T10:16:01.899Z,5.45
2022-11-01T10:18:32.204Z,8.35
2022-11-01T10:21:18.865Z,6.88
2022-11-01T10:23:47.319Z,10.35
2022-11-01T10:26:15.009Z,9.82
2022-11-01T10:28:41.403Z,9.85
2022-11-01T10:31:11.120Z,11.50
2022-11-01T10:33:57.494Z,9.45
2022-11-01T10:36:26.027Z,11.90
2022-11-01T10:41:49.355Z,11.38
2022-11-01T10:44:16.619Z,6.00
2022-11-01T10:46:45.582Z,8.63
2022-11-01T10:49:18.208Z,7.85
2022-11-01T10:51:44.748Z,7.03
2022-11-01T10:54:13.447Z,7.32
2022-11-01T10:56:41.973Z,10.88
2022-11-01T10:59:11.415Z,7.60
2022-11-01T11:01:39.387Z,11.20
2022-11-01T11:04:06.306Z,7.13
2022-11-01T11:06:33.708Z,10.75
2022-11-01T11:09:00.190Z,7.90
2022-11-01T11:11:30.931Z,8.32
2022-11-01T11:13:57.484Z,7.50
2022-11-01T11:16:26.932Z,8.40
2022-11-01T11:19:08.614Z,8.68
2022-11-01T11:21:35.125Z,9.38
2022-11-01T11:24:01.809Z,8.48
2022-11-01T11:26:28.243Z,7.53
2022-11-01T11:28:55.360Z,9.13
2022-11-01T11:31:23.369Z,9.35
2022-11-01T11:34:08.695Z,8.80
2022-11-01T11:36:35.838Z,9.23
2022-11-01T11:39:02.867Z,11.02
2022-11-01T11:41:29.359Z,13.57
2022-11-01T11:43:55.965Z,7.95
2022-11-01T11:46:24.793Z,7.45
2022-11-01T11:48:52.564Z,9.30
2022-11-01T11:51:20.586Z,11.90
2022-11-01T11:54:05.815Z,12.00
2022-11-01T11:56:32.289Z,9.43
2022-11-01T11:59:02.474Z,9.85
2022-11-01T12:01:31.636Z,7.93
2022-11-01T12:03:58.970Z,7.47
2022-11-01T12:06:25.940Z,8.60
2022-11-01T12:08:56.155Z,7.10
2022-11-01T12:11:22.874Z,11.25
2022-11-01T12:14:18.567Z,11.25
2022-11-01T12:16:44.989Z,7.10
2022-11-01T12:19:27.636Z,9.15
2022-11-01T12:21:54.620Z,9.73
2022-11-01T12:24:33.208Z,8.88
2022-11-01T12:27:01.891Z,8.85
2022-11-01T12:29:28.298Z,10.15
2022-11-01T12:31:55.165Z,10.13
2022-11-01T12:34:26.631Z,9.20
2022-11-01T12:36:58.310Z,13.48
2022-11-01T12:39:30.922Z,9.98
2022-11-01T12:41:59.309Z,9.88
2022-11-01T12:44:32.513Z,7.18
2022-11-01T12:47:00.629Z,7.07
2022-11-01T12:49:29.725Z,7.90
2022-11-01T12:51:57.303Z,11.73
2022-11-01T12:54:35.761Z,10.38
2022-11-01T12:57:02.564Z,9.40
2022-11-01T12:59:33.120Z,10.23
2022-11-01T13:02:01.714Z,10.25
2022-11-01T13:04:31.933Z,8.98
2022-11-01T13:07:10.731Z,10.20
2022-11-01T13:09:49.545Z,9.68
2022-11-01T13:12:22.997Z,9.60
2022-11-01T13:14:49.395Z,11.07
2022-11-01T13:17:18.838Z,10.82
2022-11-01T13:19:45.377Z,9.40
2022-11-01T13:22:14.562Z,8.20
2022-11-01T13:24:44.139Z,11.80
2022-11-01T13:27:19.075Z,9.15
2022-11-01T13:30:00.811Z,9.10
2022-11-01T13:32:33.446Z,9.70
2022-11-01T13:35:12.677Z,11.38
2022-11-01T13:37:59.341Z,11.13
2022-11-01T13:40:28.498Z,9.82
2022-11-01T13:42:55.986Z,7.90
2022-11-01T13:45:29.015Z,8.95
2022-11-01T13:48:04.906Z,8.00
2022-11-01T13:50:40.804Z,8.13
2022-11-01T13:53:10.140Z,10.00
2022-11-01T13:55:42.181Z,8.18
2022-11-01T13:58:12.513Z,8.18
2022-11-01T14:00:43.098Z,10.57
2022-11-01T14:03:45.981Z,7.63
2022-11-01T14:06:21.465Z,7.80
2022-11-01T14:08:48.590Z,9.23
2022-11-01T14:11:33.795Z,9.93
2022-11-01T14:14:00.195Z,7.93
2022-11-01T14:16:28.150Z,8.32
2022-11-01T14:19:03.712Z,9.23
2022-11-01T14:21:32.144Z,9.20
2022-11-01T14:23:59.056Z,9.68
2022-11-01T14:26:25.757Z,8.95
2022-11-01T14:28:54.304Z,9.85
2022-11-01T14:31:22.250Z,7.88
2022-11-01T14:33:48.732Z,6.97
2022-11-01T14:36:15.556Z,9.27
2022-11-01T14:38:56.320Z,6.38
2022-11-01T14:41:23.011Z,9.95
2022-11-01T14:43:50.756Z,8.80
2022-11-01T14:46:17.986Z,8.10
2022-11-01T14:48:46.547Z,8.40
2022-11-01T14:51:19.029Z,9.45
2022-11-01T14:53:49.104Z,10.00
2022-11-01T14:56:17.088Z,8.40
2022-11-01T14:58:44.018Z,7.97
2022-11-01T15:01:13.515Z,9.40
2022-11-01T15:03:40.122Z,11.82
2022-11-01T15:06:21.563Z,8.43
2022-11-01T15:08:48.121Z,10.07
2022-11-01T15:11:14.570Z,7.85
2022-11-01T15:13:41.535Z,10.50
2022-11-01T15:16:13.192Z,11.50
2022-11-01T15:18:43.719Z,11.98
2022-11-01T15:21:10.553Z,14.50
2022-11-01T15:23:37.260Z,12.23
2022-11-01T15:26:10.308Z,12.70
2022-11-01T15:28:40.684Z,14.50
2022-11-01T15:31:07.147Z,9.80
2022-11-01T15:33:33.869Z,12.63
2022-11-01T15:36:20.551Z,13.90
2022-11-01T15:38:54.172Z,9.95
2022-11-01T15:41:21.192Z,11.73
2022-11-01T15:43:52.190Z,11.52
2022-11-01T15:46:18.670Z,12.90
2022-11-01T15:48:45.076Z,12.40
2022-11-01T15:51:17.753Z,9.70
2022-11-01T15:53:44.207Z,14.95
2022-11-01T15:56:12.870Z,10.23
2022-11-01T15:58:43.886Z,14.98
2022-11-01T16:01:13.375Z,10.52
2022-11-01T16:03:40.742Z,11.40
2022-11-01T16:06:13.323Z,11.48
2022-11-01T16:08:41.304Z,10.48
2022-11-01T16:11:08.011Z,11.52
2022-11-01T16:13:34.475Z,12.60
2022-11-01T16:16:07.737Z,11.10
2022-11-01T16:18:34.924Z,10.15
2022-11-01T16:21:21.392Z,13.65
2022-11-01T16:23:57.149Z,12.93
2022-11-01T16:26:23.858Z,12.45
2022-11-01T16:28:51.929Z,9.95
2022-11-01T16:31:28.926Z,14.30
2022-11-01T16:33:56.073Z,15.93
2022-11-01T16:36:33.168Z,12.68
2022-11-01T16:38:59.897Z,15.35
2022-11-01T16:41:39.833Z,12.93
2022-11-01T16:44:14.764Z,13.88
2022-11-01T16:46:41.680Z,11.98
2022-11-01T16:49:14.339Z,15.85
2022-11-01T16:51:40.977Z,16.08
2022-11-01T16:54:10.613Z,15.13
2022-11-01T16:56:38.338Z,19.65
2022-11-01T16:59:23.576Z,16.25
2022-11-01T17:01:50.817Z,15.30
2022-11-01T17:04:18.545Z,14.75
2022-11-01T17:06:45.004Z,16.58
2022-11-01T17:09:15.227Z,18.30
2022-11-01T17:11:46.387Z,19.05
2022-11-01T17:14:14.710Z,22.65
2022-11-01T17:16:43.532Z,18.58
2022-11-01T17:19:10.095Z,17.27
2022-11-01T17:21:36.995Z,16.23
2022-11-01T17:24:03.745Z,24.77
2022-11-01T17:26:30.183Z,17.35
2022-11-01T17:28:56.597Z,23.80
2022-11-01T17:31:23.078Z,18.65
2022-11-01T17:33:49.516Z,19.58
2022-11-01T17:36:16.064Z,17.77
2022-11-01T17:38:42.567Z,15.88
2022-11-01T17:41:09.372Z,19.45
2022-11-01T17:43:35.791Z,15.38
2022-11-01T17:46:02.682Z,17.63
2022-11-01T17:48:29.113Z,17.90
2022-11-01T17:50:59.410Z,17.70
2022-11-01T17:53:25.858Z,18.40
2022-11-01T17:55:55.806Z,16.58
2022-11-01T17:58:22.217Z,14.65
2022-11-01T18:00:48.643Z,18.20
2022-11-01T18:03:15.131Z,18.30
2022-11-01T18:05:41.818Z,19.63
2022-11-01T18:08:15.735Z,19.67
2022-11-01T18:11:02.403Z,19.27
2022-11-01T18:13:43.135Z,19.58
2022-11-01T18:16:24.942Z,22.30
2022-11-01T18:19:02.649Z,21.67
2022-11-01T18:21:31.467Z,19.67
2022-11-01T18:23:59.497Z,20.63
2022-11-01T18:26:29.258Z,23.70
2022-11-01T18:29:00.105Z,25.85
2022-11-01T18:31:31.772Z,19.08
2022-11-01T18:34:13.495Z,20.65
2022-11-01T18:36:39.916Z,24.55
2022-11-01T18:39:10.945Z,21.77
2022-11-01T18:41:37.364Z,22.08
2022-11-01T18:44:06.460Z,23.75
2022-11-01T18:46:37.529Z,22.70
2022-11-01T18:49:05.877Z,22.52
2022-11-01T18:51:32.812Z,23.02
2022-11-01T18:54:03.477Z,25.58
2022-11-01T18:56:29.911Z,25.60
2022-11-01T18:58:56.391Z,24.17
2022-11-01T19:01:31.742Z,26.93
2022-11-01T19:04:02.709Z,23.10
2022-11-01T19:06:30.450Z,23.75
2022-11-01T19:09:00.503Z,23.17
2022-11-01T19:11:27.371Z,19.73
2022-11-01T19:13:53.841Z,20.17
2022-11-01T19:16:20.430Z,23.15
2022-11-01T19:18:47.189Z,20.70
2022-11-01T19:21:17.771Z,25.17
2022-11-01T19:23:54.329Z,20.15
2022-11-01T19:26:30.745Z,20.30
2022-11-01T19:28:57.259Z,23.73
2022-11-01T19:31:23.719Z,21.20
2022-11-01T19:33:55.613Z,21.48
2022-11-01T19:36:23.247Z,22.17
2022-11-01T19:38:49.926Z,20.83
2022-11-01T19:41:18.603Z,21.17
2022-11-01T19:43:45.085Z,22.70
2022-11-01T19:46:12.015Z,21.77
2022-11-01T19:48:38.414Z,25.60
2022-11-01T19:51:11.497Z,22.37
2022-11-01T19:53:38.016Z,24.90
2022-11-01T19:56:05.111Z,27.77
2022-11-01T19:58:42.587Z,29.97
2022-11-01T20:01:09.117Z,27.27
2022-11-01T20:03:39.864Z,26.07
2022-11-01T20:06:16.219Z,24.13
2022-11-01T20:08:42.843Z,25.45
2022-11-01T20:11:09.294Z,24.93
2022-11-01T20:13:35.968Z,23.27
2022-11-01T20:16:02.572Z,28.10
2022-11-01T20:18:29.074Z,28.90
2022-11-01T20:20:56.559Z,33.13
2022-11-01T20:23:26.910Z,32.17
2022-11-01T20:25:54.052Z,32.20
2022-11-01T20:28:20.502Z,40.35
2022-11-01T20:30:46.937Z,36.30
2022-11-01T20:33:13.389Z,45.13
2022-11-01T20:35:39.838Z,34.97
2022-11-01T20:38:06.429Z,35.80
2022-11-01T20:40:32.866Z,37.13
2022-11-01T20:42:59.308Z,32.25
2022-11-01T20:45:25.780Z,33.78
2022-11-01T20:47:52.316Z,27.90
2022-11-01T20:50:18.959Z,29.48
2022-11-01T20:52:45.458Z,23.77
2022-11-01T20:55:12.187Z,21.50
2022-11-01T20:57:38.944Z,26.33
2022-11-01T21:00:06.003Z,23.57
2022-11-01T21:02:32.465Z,24.73
2022-11-01T21:05:05.661Z,27.23
2022-11-01T21:07:32.419Z,22.00
2022-11-01T21:09:58.867Z,23.35
2022-11-01T21:12:34.525Z,24.27
2022-11-01T21:15:01.822Z,26.23
2022-11-01T21:17:28.230Z,25.48
2022-11-01T21:19:54.755Z,23.73
2022-11-01T21:22:21.244Z,24.23
2022-11-01T21:24:50.671Z,25.33
2022-11-01T21:27:37.488Z,23.83
2022-11-01T21:30:15.391Z,22.50
2022-11-01T21:32:45.062Z,22.75
2022-11-01T21:35:21.047Z,22.92
2022-11-01T21:37:47.834Z,25.02
2022-11-01T21:40:21.412Z,27.73
2022-11-01T21:42:47.867Z,25.38
2022-11-01T21:45:34.506Z,30.70
2022-11-01T21:48:02.328Z,27.48
2022-11-01T21:50:29.048Z,29.20
2022-11-01T21:52:55.475Z,29.20
2022-11-01T21:55:21.931Z,26.63
2022-11-01T21:57:48.867Z,26.83
2022-11-01T22:00:15.707Z,31.83
2022-11-01T22:02:43.121Z,28.88
2022-11-01T22:05:10.509Z,25.52
2022-11-01T22:07:37.177Z,25.17
2022-11-01T22:10:04.049Z,30.83
2022-11-01T22:12:30.559Z,29.55
2022-11-01T22:14:57.068Z,30.83
2022-11-01T22:17:23.475Z,28.27
2022-11-01T22:19:49.966Z,26.67
2022-11-01T22:22:16.375Z,26.42
2022-11-01T22:24:43.044Z,34.75
2022-11-01T22:27:09.491Z,33.75
2022-11-01T22:29:35.984Z,33.10
2022-11-01T22:32:02.483Z,33.83
2022-11-01T22:34:28.904Z,41.05
2022-11-01T22:36:55.408Z,46.78
2022-11-01T22:39:22.711Z,38.92
2022-11-01T22:41:49.183Z,40.47
2022-11-01T22:44:25.062Z,40.38
2022-11-01T22:46:58.853Z,47.95
2022-11-01T22:49:28.674Z,41.10
2022-11-01T22:52:33.780Z,41.47
2022-11-01T22:55:15.379Z,43.85
2022-11-01T22:57:49.445Z,42.55
2022-11-01T23:00:22.116Z,43.20
2022-11-01T23:02:48.787Z,47.72
2022-11-01T23:05:24.781Z,42.33
2022-11-01T23:07:51.935Z,40.80
2022-11-01T23:10:22.427Z,43.23
2022-11-01T23:13:08.201Z,44.17
2022-11-01T23:15:34.667Z,41.87
2022-11-01T23:18:18.252Z,41.20
2022-11-01T23:20:45.286Z,43.95
2022-11-01T23:23:14.612Z,40.03
2022-11-01T23:25:41.031Z,44.53
2022-11-01T23:28:07.441Z,41.13
2022-11-01T23:30:33.847Z,45.17
2022-11-01T23:33:00.269Z,42.40
2022-11-01T23:35:26.804Z,44.53
2022-11-01T23:37:53.205Z,44.05
2022-11-01T23:40:20.217Z,42.97
2022-11-01T23:42:47.089Z,40.28
2022-11-01T23:45:30.069Z,41.80
2022-11-01T23:47:56.450Z,42.70
2022-11-01T23:50:26.939Z,47.33
2022-11-01T23:52:54.570Z,48.05
2022-11-01T23:55:21.007Z,44.08
2022-11-01T23:57:47.461Z,48.70
